Time;durP1;ratioP1;P1;durP2;ratioP2;P2;SDS_P1;SDS_P2;PMS_P1;PMS_P2;Temp;Humidity;BMP_temperature;BMP_pressure;BME280_temperature;BME280_humidity;BME280_pressure;Samples;Min_cycle;Max_cycle;Signal;HPM_P1;HPM_P2
2022/08/29 00:02:11;;;;;;;8.38;5.72;;;;;;;22.64;45.21;93889.19;4958059;28;20023;-80
2022/08/29 00:04:37;;;;;;;6.82;4.93;;;;;;;22.65;45.36;93888.03;4973348;28;20023;-80
2022/08/29 00:07:03;;;;;;;7.53;4.63;;;;;;;22.66;45.82;93897.72;4972667;28;20625;-81
2022/08/29 00:09:28;;;;;;;6.55;4.82;;;;;;;22.31;45.82;93865.97;4970956;28;20597;-81
2022/08/29 00:11:53;;;;;;;7.25;5.10;;;;;;;22.50;45.59;93886.50;4971226;28;20391;-79
2022/08/29 00:14:19;;;;;;;11.13;5.50;;;;;;;22.57;45.94;93900.06;4970165;28;20046;-80
2022/08/29 00:16:45;;;;;;;8.32;5.38;;;;;;;22.44;46.05;93890.75;4955456;28;20117;-80
2022/08/29 00:19:10;;;;;;;6.05;4.78;;;;;;;22.53;46.06;93902.00;4961225;28;20114;-79
2022/08/29 00:21:36;;;;;;;5.93;5.07;;;;;;;22.49;45.86;93893.84;4972579;28;20459;-80
2022/08/29 00:24:02;;;;;;;5.70;5.13;;;;;;;22.47;46.09;93901.59;4961008;28;20062;-80
2022/08/29 00:26:28;;;;;;;7.15;5.95;;;;;;;22.21;45.81;93853.97;4971331;28;20038;-81
2022/08/29 00:28:53;;;;;;;5.97;5.38;;;;;;;22.42;45.99;93898.50;4962344;28;20398;-79
2022/08/29 00:31:19;;;;;;;6.20;5.60;;;;;;;22.44;46.15;93907.03;4972302;28;20043;-80
2022/08/29 00:33:44;;;;;;;6.70;4.80;;;;;;;22.34;46.25;93902.38;4971930;28;20382;-80
2022/08/29 00:36:10;;;;;;;6.35;4.85;;;;;;;22.13;46.31;93870.56;4971534;28;20502;-80
2022/08/29 00:38:35;;;;;;;10.52;5.05;;;;;;;22.25;46.48;93900.78;4972252;28;20173;-80
2022/08/29 00:41:01;;;;;;;7.93;5.43;;;;;;;22.13;46.25;93882.19;4973999;28;20105;-80
2022/08/29 00:43:29;;;;;;;7.57;5.40;;;;;;;22.12;46.40;93871.72;4970772;28;20548;-81
2022/08/29 00:46:10;;;;;;;8.98;5.40;;;;;;;22.29;46.18;93906.22;4971966;28;20058;-81
2022/08/29 00:48:39;;;;;;;14.57;6.53;;;;;;;22.23;46.43;93897.69;4972770;28;20026;-80
2022/08/29 00:51:11;;;;;;;7.68;5.85;;;;;;;21.90;46.22;93854.66;4971368;28;20054;-82
2022/08/29 00:53:41;;;;;;;11.55;6.20;;;;;;;22.23;46.28;93892.28;4972317;28;20022;-81
2022/08/29 00:56:10;;;;;;;6.63;5.00;;;;;;;22.20;46.19;93887.59;4955852;28;20538;-79
2022/08/29 00:59:07;;;;;;;13.20;6.90;;;;;;;22.16;46.42;93891.44;4969678;28;20053;-80
2022/08/29 01:01:33;;;;;;;8.13;5.60;;;;;;;22.05;46.21;93880.59;4952107;28;20137;-80
2022/08/29 01:03:59;;;;;;;9.35;5.78;;;;;;;22.16;46.25;93889.53;4972298;28;20128;-80
2022/08/29 01:06:26;;;;;;;7.07;5.72;;;;;;;22.11;46.33;93879.06;4970710;28;20027;-80
2022/08/29 01:08:52;;;;;;;5.88;5.22;;;;;;;21.76;46.18;93824.84;4971296;28;20459;-80
2022/08/29 01:14:03;;;;;;;7.47;5.70;;;;;;;22.02;46.14;93870.53;4970092;28;20110;-81
2022/08/29 01:16:30;;;;;;;8.82;6.22;;;;;;;22.13;46.15;93890.31;4972241;28;20018;-80
2022/08/29 01:19:00;;;;;;;8.10;5.25;;;;;;;22.11;46.11;93883.69;4968575;28;20037;-80
2022/08/29 01:21:42;;;;;;;7.97;5.30;;;;;;;21.96;46.23;93865.88;4953905;28;20161;-81
2022/08/29 01:24:14;;;;;;;6.50;5.28;;;;;;;22.10;46.13;93885.63;4971206;28;21100;-80
2022/08/29 01:26:41;;;;;;;10.93;5.32;;;;;;;21.87;46.10;93858.13;4970439;28;20503;-79
2022/08/29 01:29:07;;;;;;;5.78;5.00;;;;;;;21.92;46.29;93868.59;4971693;28;20137;-79
2022/08/29 01:31:39;;;;;;;7.47;4.85;;;;;;;21.72;46.11;93843.00;4971304;28;20749;-79
2022/08/29 01:34:05;;;;;;;9.77;5.18;;;;;;;21.89;45.74;93872.06;4958933;28;20118;-80
2022/08/29 01:36:52;;;;;;;9.10;5.30;;;;;;;21.81;45.43;93862.34;4970213;28;20022;-78
2022/08/29 01:39:20;;;;;;;7.43;4.72;;;;;;;21.79;45.19;93868.16;4960276;28;20065;-78
2022/08/29 01:41:47;;;;;;;13.05;5.28;;;;;;;21.80;45.17;93871.66;4969690;28;20038;-81
2022/08/29 01:44:18;;;;;;;7.50;4.78;;;;;;;21.73;45.16;93855.38;4968421;28;20141;-78
2022/08/29 01:46:45;;;;;;;10.30;5.68;;;;;;;21.68;45.50;93861.16;4969824;28;20592;-79
2022/08/29 01:49:12;;;;;;;6.30;4.35;;;;;;;21.88;45.49;93892.16;4969615;28;20410;-81
2022/08/29 01:51:39;;;;;;;5.57;4.57;;;;;;;21.71;45.38;93860.38;4969271;28;20065;-79
2022/08/29 01:54:06;;;;;;;8.05;4.20;;;;;;;21.88;45.14;93886.75;4969550;28;20398;-81
2022/08/29 01:56:35;;;;;;;7.15;4.70;;;;;;;21.68;45.25;93858.47;4969582;28;20026;-79
2022/08/29 01:59:04;;;;;;;8.45;4.80;;;;;;;21.65;45.59;93862.72;4969510;28;20046;-78
2022/08/29 02:01:36;;;;;;;8.50;4.57;;;;;;;20.76;45.19;93730.94;4970654;28;20033;-80
2022/08/29 02:04:02;;;;;;;6.95;4.88;;;;;;;21.62;45.58;93870.81;4954166;28;20034;-80
2022/08/29 02:06:28;;;;;;;6.13;4.68;;;;;;;21.51;45.92;93867.28;4959019;28;20418;-80
2022/08/29 02:08:54;;;;;;;6.43;4.63;;;;;;;21.58;46.24;93894.38;4970504;28;20030;-81
2022/08/29 02:11:21;;;;;;;4.95;4.30;;;;;;;21.59;46.09;93909.47;4959242;28;20066;-79
2022/08/29 02:13:56;;;;;;;7.97;4.40;;;;;;;21.52;46.30;93901.28;4970360;28;20596;-79
2022/08/29 02:16:26;;;;;;;6.72;4.88;;;;;;;21.46;46.12;93909.75;4970597;28;20126;-80
2022/08/29 02:18:51;;;;;;;7.05;3.80;;;;;;;21.41;46.45;93904.69;4954528;28;20022;-78
2022/08/29 02:21:19;;;;;;;8.52;4.43;;;;;;;21.29;46.36;93894.22;4970240;28;20085;-81
2022/08/29 02:23:45;;;;;;;7.00;4.97;;;;;;;21.16;46.51;93884.88;4970853;28;20022;-79
2022/08/29 02:26:11;;;;;;;4.50;3.92;;;;;;;21.23;46.55;93893.03;4969419;28;20394;-79
2022/08/29 02:28:37;;;;;;;6.88;4.28;;;;;;;21.31;46.59;93908.16;4959892;28;20040;-78
2022/08/29 02:31:05;;;;;;;5.53;3.80;;;;;;;21.11;46.51;93877.13;4969135;28;20026;-81
2022/08/29 02:33:31;;;;;;;9.10;4.43;;;;;;;21.16;47.03;93889.50;4968541;28;20051;-80
2022/08/29 02:35:57;;;;;;;6.05;4.78;;;;;;;21.29;46.87;93902.34;4969618;28;20046;-79
2022/08/29 02:38:25;;;;;;;4.72;4.22;;;;;;;21.26;47.11;93900.41;4968517;28;20059;-80
2022/08/29 02:40:53;;;;;;;10.85;4.15;;;;;;;21.12;46.91;93884.06;4969029;28;20580;-79
2022/08/29 02:43:20;;;;;;;7.35;4.93;;;;;;;21.23;47.46;93903.84;4968936;28;20046;-81
2022/08/29 02:45:46;;;;;;;6.30;5.70;;;;;;;21.18;47.18;93887.97;4959729;28;20034;-78
2022/08/29 02:48:13;;;;;;;7.13;5.13;;;;;;;21.23;47.05;93901.13;4967671;28;20022;-79
2022/08/29 02:50:46;;;;;;;6.68;4.72;;;;;;;21.26;47.37;93913.13;4970925;28;20092;-78
2022/08/29 02:53:13;;;;;;;7.50;4.72;;;;;;;21.20;47.37;93911.94;4968044;28;20458;-80
2022/08/29 02:55:39;;;;;;;7.10;4.97;;;;;;;21.04;47.29;93887.88;4959502;28;20361;-78
2022/08/29 02:58:05;;;;;;;6.18;5.07;;;;;;;21.09;47.74;93901.06;4959304;28;20392;-79
2022/08/29 03:00:32;;;;;;;6.90;4.75;;;;;;;21.05;47.78;93916.47;4969759;28;20033;-79
2022/08/29 03:02:58;;;;;;;7.15;5.50;;;;;;;21.02;47.98;93912.59;4970287;28;20030;-79
2022/08/29 03:05:26;;;;;;;7.88;4.55;;;;;;;20.84;47.77;93900.06;4969191;28;20023;-80
2022/08/29 03:07:53;;;;;;;7.05;4.82;;;;;;;20.82;47.91;93907.81;4970640;28;20387;-80
2022/08/29 03:10:19;;;;;;;8.10;5.20;;;;;;;20.86;47.62;93909.38;4967935;28;20029;-82
2022/08/29 03:12:44;;;;;;;5.38;4.75;;;;;;;20.83;47.96;93901.22;4968319;28;20018;-81
2022/08/29 03:15:10;;;;;;;5.18;4.07;;;;;;;20.91;47.73;93916.38;4970823;28;20325;-81
2022/08/29 03:17:35;;;;;;;5.20;4.03;;;;;;;20.99;47.75;93929.56;4969248;28;20410;-80
2022/08/29 03:20:02;;;;;;;7.72;4.53;;;;;;;20.83;47.88;93909.34;4968353;28;20117;-81
2022/08/29 03:22:27;;;;;;;12.02;4.90;;;;;;;20.94;47.30;93927.22;4954090;28;20064;-80
2022/08/29 03:24:53;;;;;;;5.15;4.05;;;;;;;20.88;47.47;93923.31;4973326;28;20092;-81
2022/08/29 03:27:19;;;;;;;5.97;4.18;;;;;;;20.75;47.57;93910.44;4973703;28;20027;-81
2022/08/29 03:29:45;;;;;;;9.80;4.72;;;;;;;20.67;47.74;93915.03;4972188;28;20027;-80
2022/08/29 03:32:11;;;;;;;8.90;4.60;;;;;;;20.37;47.82;93879.25;4972839;28;20392;-80
2022/08/29 03:34:37;;;;;;;11.27;5.57;;;;;;;20.05;48.36;93838.44;4970894;28;20041;-80
2022/08/29 03:37:04;;;;;;;6.35;4.55;;;;;;;20.44;48.28;93895.50;4973086;28;20151;-83
2022/08/29 03:39:30;;;;;;;5.72;5.10;;;;;;;20.70;48.72;93935.09;4973135;28;20022;-80
2022/08/29 03:41:55;;;;;;;7.72;5.32;;;;;;;20.65;48.64;93930.81;4972076;28;20550;-80
2022/08/29 03:44:22;;;;;;;10.60;5.93;;;;;;;20.71;48.44;93936.66;4973842;28;20030;-80
2022/08/29 03:46:48;;;;;;;11.00;5.40;;;;;;;20.73;48.31;93939.78;4971772;28;20039;-82
2022/08/29 03:49:14;;;;;;;8.13;5.68;;;;;;;20.60;48.20;93918.44;4972236;28;20033;-80
2022/08/29 03:51:40;;;;;;;9.98;5.53;;;;;;;20.78;48.39;93939.41;4971986;28;20062;-81
2022/08/29 03:54:05;;;;;;;8.73;6.22;;;;;;;20.30;48.20;93876.50;4972581;28;20022;-81
2022/08/29 03:56:31;;;;;;;11.00;7.75;;;;;;;20.46;48.48;93893.22;4955539;28;20034;-79
2022/08/29 03:58:57;;;;;;;14.32;7.82;;;;;;;20.57;48.55;93924.59;4972086;28;20022;-80
2022/08/29 04:01:27;;;;;;;10.07;6.28;;;;;;;20.68;48.58;93940.88;4972611;28;20030;-81
2022/08/29 04:03:52;;;;;;;7.57;5.70;;;;;;;20.50;48.47;93923.75;4973312;28;20030;-81
2022/08/29 04:06:19;;;;;;;8.30;6.05;;;;;;;20.36;48.42;93913.59;4971840;28;20030;-81
2022/08/29 04:08:46;;;;;;;12.57;6.82;;;;;;;20.48;48.94;93932.22;4971240;28;20019;-80
2022/08/29 04:11:13;;;;;;;7.05;4.95;;;;;;;20.58;48.75;93952.41;4961144;28;20049;-81
2022/08/29 04:13:39;;;;;;;7.60;5.85;;;;;;;20.48;49.01;93943.03;4956294;28;20085;-80
2022/08/29 04:16:14;;;;;;;7.65;5.05;;;;;;;20.55;48.94;93961.22;4971646;28;20049;-80
2022/08/29 04:18:40;;;;;;;8.32;4.72;;;;;;;20.52;49.52;93956.59;4971645;28;20037;-81
2022/08/29 04:21:06;;;;;;;7.88;4.22;;;;;;;20.50;49.14;93956.94;4960397;28;20521;-79
2022/08/29 04:23:34;;;;;;;5.47;4.57;;;;;;;20.30;49.19;93915.06;4956395;28;20022;-81
2022/08/29 04:25:59;;;;;;;10.68;5.47;;;;;;;20.43;49.02;93937.97;4970484;28;20026;-80
2022/08/29 04:28:26;;;;;;;10.38;5.45;;;;;;;20.50;49.09;93935.34;4970329;28;20062;-81
2022/08/29 04:30:53;;;;;;;11.07;4.63;;;;;;;20.46;49.13;93937.22;4969685;28;20026;-81
2022/08/29 04:33:24;;;;;;;5.75;4.70;;;;;;;20.67;49.27;93965.59;4969443;28;20541;-81
2022/08/29 04:35:51;;;;;;;10.30;4.68;;;;;;;20.67;49.64;93968.28;4955439;28;20133;-81
2022/08/29 04:38:17;;;;;;;8.00;4.25;;;;;;;20.51;50.05;93946.91;4970170;28;20483;-80
2022/08/29 04:40:43;;;;;;;8.95;5.30;;;;;;;20.48;49.97;93937.63;4971020;28;20490;-81
2022/08/29 04:43:09;;;;;;;7.82;4.68;;;;;;;20.50;50.38;93946.13;4969796;28;20424;-81
2022/08/29 04:45:35;;;;;;;9.32;4.97;;;;;;;20.36;50.04;93923.63;4969421;28;20498;-82
2022/08/29 04:48:02;;;;;;;13.07;5.88;;;;;;;20.77;50.17;93975.72;4969549;28;20103;-79
2022/08/29 04:50:28;;;;;;;6.35;5.13;;;;;;;20.64;50.06;93950.88;4968058;28;20210;-81
2022/08/29 04:52:54;;;;;;;5.78;4.93;;;;;;;20.89;49.91;93978.16;4970573;28;20053;-79
2022/08/29 04:55:22;;;;;;;11.52;5.00;;;;;;;20.95;50.33;93977.44;4968964;28;20066;-78
2022/08/29 04:57:49;;;;;;;8.60;4.78;;;;;;;21.03;50.14;93983.66;4969852;28;20018;-81
2022/08/29 05:00:17;;;;;;;9.38;5.50;;;;;;;21.15;49.99;93988.00;4970838;28;20034;-78
2022/08/29 05:02:43;;;;;;;7.85;5.05;;;;;;;21.15;49.62;93969.88;4953224;28;20022;-81
2022/08/29 05:05:11;;;;;;;10.27;5.80;;;;;;;21.33;49.86;93989.69;4973039;28;20503;-81
2022/08/29 05:07:37;;;;;;;8.88;6.80;;;;;;;21.41;48.79;93983.16;4953054;28;20022;-79
2022/08/29 05:10:09;;;;;;;11.23;6.55;;;;;;;21.48;48.81;93987.06;4971680;28;20037;-81
2022/08/29 05:12:36;;;;;;;6.93;5.15;;;;;;;21.15;49.00;93942.03;4971729;28;20712;-80
2022/08/29 05:15:03;;;;;;;7.90;6.55;;;;;;;21.61;48.87;93996.47;4971224;28;20022;-80
2022/08/29 05:17:29;;;;;;;10.60;6.97;;;;;;;21.48;47.97;93960.00;4951329;28;20084;-81
2022/08/29 05:19:54;;;;;;;10.95;7.32;;;;;;;21.50;48.60;93969.31;4970426;28;20430;-80
2022/08/29 05:22:20;;;;;;;11.48;7.72;;;;;;;21.68;48.97;93997.28;4969819;28;20026;-81
2022/08/29 05:24:46;;;;;;;14.57;8.25;;;;;;;21.62;48.71;93981.75;4959738;28;20031;-81
2022/08/29 05:27:15;;;;;;;12.77;7.50;;;;;;;21.78;48.49;94001.19;4969882;28;20426;-80
2022/08/29 05:29:42;;;;;;;12.43;9.55;;;;;;;21.85;48.74;94001.97;4971757;28;20031;-80
2022/08/29 05:32:09;;;;;;;8.38;7.50;;;;;;;21.88;48.08;93995.81;4971230;28;21299;-81
2022/08/29 05:34:37;;;;;;;11.10;7.70;;;;;;;22.05;48.16;94010.59;4970440;28;20069;-79
2022/08/29 05:37:09;;;;;;;18.70;8.38;;;;;;;22.14;47.85;94005.63;4971552;28;20030;-82
2022/08/29 05:39:37;;;;;;;20.73;8.18;;;;;;;22.07;47.86;93992.03;4952469;28;20453;-81
2022/08/29 05:42:04;;;;;;;15.32;8.05;;;;;;;22.20;47.25;94006.00;4970041;28;20026;-79
2022/08/29 05:44:31;;;;;;;10.50;8.00;;;;;;;22.17;47.12;94004.84;4970126;28;20022;-80
2022/08/29 05:46:57;;;;;;;14.75;9.65;;;;;;;22.25;47.71;94011.06;4968108;28;20049;-78
2022/08/29 05:49:22;;;;;;;11.77;8.00;;;;;;;22.33;47.17;94011.88;4957950;28;20712;-79
2022/08/29 05:51:52;;;;;;;13.27;7.32;;;;;;;22.18;46.60;93987.44;4953716;28;20238;-82
2022/08/29 05:54:17;;;;;;;20.98;7.75;;;;;;;22.35;46.67;94012.25;4969321;28;20026;-82
2022/08/29 05:56:43;;;;;;;11.50;8.32;;;;;;;22.40;47.06;94017.31;4970035;28;20077;-79
2022/08/29 05:59:10;;;;;;;18.15;9.07;;;;;;;22.41;47.32;94016.16;4968781;28;20030;-81
2022/08/29 06:01:35;;;;;;;12.90;9.50;;;;;;;22.32;47.37;93991.38;4971109;28;20070;-80
2022/08/29 06:04:01;;;;;;;18.20;8.57;;;;;;;22.44;47.30;94012.72;4969754;28;20109;-80
2022/08/29 06:06:28;;;;;;;12.80;8.27;;;;;;;22.40;47.77;94004.53;4969938;28;20023;-80
2022/08/29 06:08:55;;;;;;;9.45;8.25;;;;;;;22.64;47.35;94030.16;4969567;28;20811;-80
2022/08/29 06:11:23;;;;;;;12.25;9.15;;;;;;;22.63;47.76;94034.06;4959844;28;20028;-82
2022/08/29 06:13:49;;;;;;;12.68;8.43;;;;;;;22.45;47.29;94006.88;4969070;28;20050;-79
2022/08/29 06:16:18;;;;;;;13.57;9.32;;;;;;;22.61;46.63;94025.50;4969853;28;20635;-81
2022/08/29 06:18:44;;;;;;;17.67;10.60;;;;;;;22.55;47.38;94018.91;4952423;28;20022;-80
2022/08/29 06:21:10;;;;;;;12.18;9.30;;;;;;;22.32;47.23;93992.16;4969310;28;20030;-78
2022/08/29 06:23:37;;;;;;;18.13;9.93;;;;;;;22.41;47.49;94027.00;4968761;28;20046;-78
2022/08/29 06:26:04;;;;;;;15.45;10.75;;;;;;;22.48;48.15;94027.03;4970251;28;20023;-80
2022/08/29 06:28:30;;;;;;;14.95;9.95;;;;;;;22.32;47.72;93992.16;4969663;28;20029;-78
2022/08/29 06:30:56;;;;;;;17.77;11.15;;;;;;;22.58;47.43;94021.66;4971142;28;20037;-80
2022/08/29 06:33:22;;;;;;;10.63;8.90;;;;;;;22.32;46.47;93975.13;4969293;28;20778;-80
2022/08/29 06:35:47;;;;;;;13.30;8.85;;;;;;;22.68;47.04;94020.13;4969610;28;20038;-80
2022/08/29 06:38:13;;;;;;;13.82;8.25;;;;;;;22.66;46.04;94027.84;4966341;28;20023;-79
2022/08/29 06:40:38;;;;;;;15.13;9.10;;;;;;;22.75;46.69;94030.97;4969322;28;20407;-79
2022/08/29 06:43:03;;;;;;;13.82;8.75;;;;;;;22.83;46.52;94032.50;4968884;28;20054;-80
2022/08/29 06:45:29;;;;;;;13.07;9.10;;;;;;;22.62;46.63;93981.75;4970086;28;20581;-79
2022/08/29 06:47:54;;;;;;;14.98;9.57;;;;;;;23.03;46.88;94030.25;4970340;28;20034;-79
2022/08/29 06:50:20;;;;;;;11.98;8.55;;;;;;;23.10;46.79;94027.53;4969671;28;20097;-78
2022/08/29 06:52:45;;;;;;;12.82;8.40;;;;;;;23.06;46.08;94008.56;4969878;28;20034;-79
2022/08/29 06:55:11;;;;;;;10.82;8.65;;;;;;;23.17;46.17;94018.63;4968244;28;20022;-79
2022/08/29 06:57:43;;;;;;;15.00;8.80;;;;;;;23.07;45.00;93982.22;4973226;28;20026;-79
2022/08/29 07:00:14;;;;;;;12.05;8.23;;;;;;;23.36;45.26;94027.16;4973053;28;20791;-80
2022/08/29 07:02:39;;;;;;;10.45;7.70;;;;;;;23.32;45.03;94031.03;4974644;28;20026;-78
2022/08/29 07:05:06;;;;;;;10.60;7.57;;;;;;;23.15;45.86;94027.16;4963286;28;20022;-79
2022/08/29 07:07:33;;;;;;;10.15;8.23;;;;;;;23.33;45.59;94046.13;4972066;28;20960;-80
2022/08/29 07:09:59;;;;;;;9.20;7.88;;;;;;;23.24;45.68;94024.03;4958447;28;20027;-78
2022/08/29 07:12:25;;;;;;;14.82;9.00;;;;;;;23.28;45.28;94054.66;4973048;28;20031;-78
2022/08/29 07:14:50;;;;;;;12.90;8.55;;;;;;;23.11;45.76;94013.59;4972635;28;20026;-79
2022/08/29 07:17:16;;;;;;;10.73;8.15;;;;;;;23.30;45.24;94017.84;4971460;28;20042;-79
2022/08/29 07:19:41;;;;;;;13.52;8.55;;;;;;;23.03;45.85;93968.63;4972186;28;20081;-79
2022/08/29 07:22:07;;;;;;;10.35;7.38;;;;;;;23.32;44.33;94003.91;4973889;28;20088;-79
2022/08/29 07:24:33;;;;;;;12.13;8.20;;;;;;;23.57;44.01;94039.94;4971458;28;20279;-80
2022/08/29 07:26:59;;;;;;;14.48;8.43;;;;;;;23.65;44.90;94049.66;4973656;28;20026;-80
2022/08/29 07:29:25;;;;;;;14.15;8.85;;;;;;;23.66;44.89;94056.59;4972794;28;20531;-78
2022/08/29 07:31:51;;;;;;;11.90;8.50;;;;;;;23.49;44.09;94030.28;4961302;28;20061;-78
2022/08/29 07:34:18;;;;;;;10.27;7.40;;;;;;;23.61;44.18;94057.03;4956463;28;20026;-78
2022/08/29 07:36:43;;;;;;;10.30;8.07;;;;;;;23.53;44.88;94031.03;4972125;28;20018;-79
2022/08/29 07:39:13;;;;;;;14.90;9.15;;;;;;;23.76;45.18;94061.25;4971577;28;20049;-78
2022/08/29 07:41:40;;;;;;;10.20;7.85;;;;;;;23.88;44.86;94055.41;4973375;28;20018;-79
2022/08/29 07:44:06;;;;;;;15.30;8.27;;;;;;;23.78;44.28;94041.84;4973592;28;20132;-81
2022/08/29 07:46:31;;;;;;;9.98;7.00;;;;;;;23.91;44.49;94053.84;4970191;28;20031;-79
2022/08/29 07:48:57;;;;;;;12.38;7.63;;;;;;;24.04;44.09;94062.38;4971351;28;20104;-81
2022/08/29 07:51:24;;;;;;;10.07;6.05;;;;;;;24.07;44.08;94062.34;4972197;28;20162;-78
2022/08/29 07:53:50;;;;;;;8.93;6.50;;;;;;;23.71;44.33;94017.44;4970726;28;20475;-82
2022/08/29 07:56:21;;;;;;;11.68;7.57;;;;;;;24.04;44.41;94048.78;4954575;28;20037;-81
2022/08/29 07:58:47;;;;;;;13.95;7.85;;;;;;;23.97;44.45;94027.84;4972370;28;20510;-78
2022/08/29 08:01:13;;;;;;;11.93;6.85;;;;;;;24.14;44.53;94053.44;4973516;28;20033;-79
2022/08/29 08:03:42;;;;;;;12.80;7.20;;;;;;;24.05;45.01;94036.75;4975002;28;20030;-79
2022/08/29 08:06:09;;;;;;;7.68;6.45;;;;;;;23.96;44.84;94051.50;4973801;28;20394;-80
2022/08/29 08:08:35;;;;;;;13.75;6.85;;;;;;;24.07;45.54;94053.41;4958526;28;20022;-80
2022/08/29 08:11:06;;;;;;;9.20;7.40;;;;;;;24.00;44.85;94027.81;4971185;28;20029;-79
2022/08/29 08:13:32;;;;;;;8.05;6.38;;;;;;;23.90;45.19;94033.31;4973241;28;20030;-81
2022/08/29 08:16:02;;;;;;;7.07;5.80;;;;;;;23.87;46.46;94013.13;4970681;28;20021;-79
2022/08/29 08:18:28;;;;;;;7.78;6.53;;;;;;;23.76;45.33;93987.94;4970878;28;20030;-79
2022/08/29 08:20:54;;;;;;;9.57;6.53;;;;;;;23.96;45.53;94043.34;4971181;28;20100;-79
2022/08/29 08:23:19;;;;;;;8.95;6.35;;;;;;;23.98;45.16;94051.13;4972835;28;20078;-79
2022/08/29 08:25:45;;;;;;;7.65;6.07;;;;;;;23.80;45.72;94045.75;4972028;28;20031;-79
2022/08/29 08:28:14;;;;;;;10.38;6.95;;;;;;;23.79;45.71;94048.84;4971023;28;20030;-80
2022/08/29 08:30:40;;;;;;;6.90;6.15;;;;;;;23.95;45.88;94036.38;4971162;28;20026;-80
2022/08/29 08:33:05;;;;;;;6.10;5.47;;;;;;;23.92;45.53;94048.03;4971654;28;20518;-79
2022/08/29 08:35:33;;;;;;;10.90;6.95;;;;;;;23.95;45.07;94033.66;4972487;28;20695;-80
2022/08/29 08:38:00;;;;;;;11.23;7.03;;;;;;;23.86;44.62;94017.00;4971413;28;20566;-80
2022/08/29 08:40:27;;;;;;;12.50;6.38;;;;;;;24.02;45.36;94049.94;4972606;28;20049;-79
2022/08/29 08:43:02;;;;;;;12.50;7.93;;;;;;;23.96;45.08;94037.94;4972254;28;20026;-80
2022/08/29 08:45:41;;;;;;;14.63;7.07;;;;;;;23.98;45.66;94024.75;4953551;28;20482;-79
2022/08/29 08:48:23;;;;;;;10.43;7.07;;;;;;;24.27;44.79;94043.69;4956780;28;20062;-78
2022/08/29 08:50:58;;;;;;;11.40;6.72;;;;;;;24.12;45.14;94031.31;4970796;28;21058;-81
2022/08/29 08:53:34;;;;;;;8.23;7.30;;;;;;;24.21;45.51;94047.97;4971346;28;20522;-78
2022/08/29 08:56:24;;;;;;;12.20;6.88;;;;;;;23.94;45.12;94006.91;4961683;28;20068;-79
2022/08/29 08:58:54;;;;;;;14.27;6.70;;;;;;;24.09;45.79;94045.66;4948049;28;21004;-78
2022/08/29 09:01:28;;;;;;;14.40;7.22;;;;;;;24.14;45.92;94035.19;4961751;28;20030;-80
2022/08/29 09:04:21;;;;;;;32.57;7.43;;;;;;;24.30;46.42;94040.16;4969882;28;20026;-80
2022/08/29 09:06:50;;;;;;;11.25;7.20;;;;;;;24.39;46.24;94035.09;4952927;28;20034;-78
2022/08/29 09:09:56;;;;;;;10.05;7.45;;;;;;;24.25;46.59;94032.41;4952924;28;20026;-79
2022/08/29 09:12:48;;;;;;;10.77;6.50;;;;;;;24.35;47.01;94037.81;4969437;28;20031;-78
2022/08/29 09:15:22;;;;;;;13.00;7.10;;;;;;;24.22;46.95;94008.75;4961029;28;20061;-79
2022/08/29 09:17:54;;;;;;;16.63;7.60;;;;;;;24.20;48.00;94019.25;4971703;28;20304;-79
2022/08/29 09:20:27;;;;;;;11.35;8.02;;;;;;;24.07;49.39;94031.69;4971342;28;20034;-80
2022/08/29 09:23:18;;;;;;;12.38;7.88;;;;;;;23.86;51.80;94041.44;4954802;28;20442;-79
2022/08/29 09:25:43;;;;;;;14.35;7.80;;;;;;;23.91;52.11;94021.25;4961821;28;20034;-78
2022/08/29 09:28:09;;;;;;;11.93;8.15;;;;;;;23.81;52.11;93997.63;4969298;28;20096;-81
2022/08/29 09:30:36;;;;;;;13.85;9.10;;;;;;;23.92;52.97;94022.81;4972625;28;20375;-79
2022/08/29 09:33:08;;;;;;;9.45;7.38;;;;;;;23.99;51.78;94020.84;4970945;28;20042;-80
2022/08/29 09:35:39;;;;;;;8.40;7.18;;;;;;;23.93;51.66;94006.13;4973260;28;20025;-79
2022/08/29 09:38:16;;;;;;;11.73;6.80;;;;;;;23.82;51.69;94026.31;4968470;28;20014;-79
2022/08/29 09:41:02;;;;;;;10.07;6.70;;;;;;;23.56;51.42;93976.72;4954967;28;20030;-80
2022/08/29 09:43:47;;;;;;;10.52;6.55;;;;;;;23.76;51.85;93984.47;4954823;28;20431;-80
2022/08/29 09:46:23;;;;;;;9.20;6.53;;;;;;;24.08;51.83;94020.44;4967575;28;20080;-81
2022/08/29 09:49:12;;;;;;;6.47;5.78;;;;;;;24.00;50.19;94008.81;4960904;28;20464;-81
2022/08/29 09:51:47;;;;;;;9.13;6.15;;;;;;;24.08;50.40;94011.50;4955086;28;20019;-78
2022/08/29 09:54:21;;;;;;;;;;;;;;;24.18;50.65;93999.84;4970486;28;20030;-79
2022/08/29 09:57:17;;;;;;;9.30;6.85;;;;;;;24.16;50.14;94004.91;4971042;28;19918;-79
2022/08/29 09:59:45;;;;;;;10.57;6.30;;;;;;;23.97;50.21;93990.59;4971200;28;20400;-80
2022/08/29 10:02:26;;;;;;;10.90;6.30;;;;;;;23.71;52.17;93971.28;4968277;28;20222;-80
2022/08/29 10:05:00;;;;;;;7.97;6.90;;;;;;;23.95;51.84;93994.88;4968846;28;20030;-79
2022/08/29 10:07:44;;;;;;;8.65;6.43;;;;;;;24.10;51.26;93999.06;4968844;28;20026;-80
2022/08/29 10:10:17;;;;;;;8.32;5.70;;;;;;;24.14;50.81;93999.88;4968418;28;20505;-79
2022/08/29 10:12:58;;;;;;;11.98;7.70;;;;;;;24.00;51.31;93999.91;4969518;28;20023;-78
2022/08/29 10:15:37;;;;;;;13.20;6.97;;;;;;;23.90;52.52;93990.63;4971137;28;20050;-80
2022/08/29 10:18:22;;;;;;;14.18;6.70;;;;;;;23.83;52.13;93987.91;4958942;28;20026;-80
2022/08/29 10:21:16;;;;;;;8.63;6.57;;;;;;;23.67;51.72;93965.84;4969418;28;20037;-79
2022/08/29 10:23:56;;;;;;;9.25;5.88;;;;;;;23.67;51.75;93982.13;4968824;28;20403;-80
2022/08/29 10:26:33;;;;;;;14.02;6.93;;;;;;;23.30;51.96;93962.81;4969810;28;20034;-79
2022/08/29 10:29:11;;;;;;;11.20;7.07;;;;;;;23.27;52.46;93979.88;4969777;28;20022;-79
2022/08/29 10:32:00;;;;;;;8.40;6.95;;;;;;;23.37;52.50;93987.19;4954169;28;20018;-80
2022/08/29 10:34:45;;;;;;;8.75;6.55;;;;;;;23.40;52.49;93983.72;4972371;28;20235;-78
2022/08/29 10:37:30;;;;;;;11.97;6.93;;;;;;;23.49;53.04;93970.56;4973366;28;20665;-79
2022/08/29 10:39:58;;;;;;;10.13;6.68;;;;;;;23.59;52.56;93969.75;4955231;28;20062;-79
2022/08/29 10:42:25;;;;;;;10.35;6.28;;;;;;;23.26;52.86;93918.63;4974701;28;20030;-79
2022/08/29 10:45:24;;;;;;;10.80;7.28;;;;;;;23.68;52.60;93955.75;4972152;28;20096;-79
2022/08/29 10:48:20;;;;;;;12.90;8.15;;;;;;;23.58;52.11;93957.34;4952120;28;20046;-79
2022/08/29 10:50:51;;;;;;;7.07;5.72;;;;;;;23.54;51.94;93951.16;4968110;28;20035;-79
2022/08/29 10:53:28;;;;;;;12.60;7.75;;;;;;;23.26;51.89;93894.22;4972282;28;20062;-80
2022/08/29 10:55:59;;;;;;;16.55;8.35;;;;;;;23.44;52.37;93914.69;4963092;28;20023;-79
2022/08/29 10:58:59;;;;;;;15.57;8.98;;;;;;;23.82;53.07;93961.16;4958000;28;20058;-80
2022/08/29 11:01:48;;;;;;;19.40;10.65;;;;;;;23.51;54.36;93930.22;4957599;28;20030;-79
2022/08/29 11:04:21;;;;;;;14.95;8.90;;;;;;;23.60;53.48;93938.75;4971542;28;20430;-79
2022/08/29 11:06:54;;;;;;;21.00;11.77;;;;;;;23.55;53.69;93941.84;4973424;28;20483;-79
2022/08/29 11:09:22;;;;;;;19.45;11.60;;;;;;;23.68;53.16;93944.91;4956282;28;20031;-79
2022/08/29 11:12:02;;;;;;;12.63;8.27;;;;;;;23.04;53.51;93893.47;4963108;28;20073;-80
2022/08/29 11:14:37;;;;;;;8.90;7.45;;;;;;;23.49;53.38;93937.97;4971916;28;20030;-79
2022/08/29 11:17:04;;;;;;;9.18;7.93;;;;;;;23.53;53.01;93928.66;4972527;28;20080;-80
2022/08/29 11:20:12;;;;;;;11.35;7.35;;;;;;;23.50;52.55;93923.25;4970057;28;20137;-80
2022/08/29 11:22:49;;;;;;;10.25;8.25;;;;;;;23.56;53.64;93897.25;4960847;28;20038;-80
2022/08/29 11:25:19;;;;;;;11.43;7.78;;;;;;;23.88;53.89;93927.75;4971490;28;20487;-80
2022/08/29 11:27:45;;;;;;;12.20;7.30;;;;;;;23.80;55.61;93909.97;4962999;28;20030;-81
2022/08/29 11:30:21;;;;;;;12.07;7.30;;;;;;;23.81;53.18;93914.19;4973558;28;20073;-79
2022/08/29 11:33:09;;;;;;;6.95;6.03;;;;;;;23.66;50.68;93865.81;4954011;28;20092;-79
2022/08/29 11:35:57;;;;;;;8.07;6.32;;;;;;;24.02;48.85;93900.53;4957023;28;20038;-79
2022/08/29 11:38:44;;;;;;;10.88;6.18;;;;;;;24.21;47.76;93898.50;4955404;28;20128;-79
2022/08/29 11:41:31;;;;;;;8.05;7.25;;;;;;;24.37;47.10;93888.72;4972066;28;20042;-81
2022/08/29 11:44:24;;;;;;;7.45;6.00;;;;;;;24.58;47.29;93897.88;4972981;28;20104;-81
2022/08/29 11:46:50;;;;;;;8.30;5.95;;;;;;;24.74;47.67;93909.03;4970863;28;20018;-80